createdAt,value
2023-01-23T00:02:13.114Z,19.08
2023-01-23T00:07:14.700Z,18.30
2023-01-23T00:12:16.392Z,19.58
2023-01-23T00:17:17.948Z,21.48
2023-01-23T00:22:19.472Z,21.45
2023-01-23T00:27:21.144Z,20.77
2023-01-23T00:32:22.933Z,20.30
2023-01-23T00:37:24.492Z,21.65
2023-01-23T00:42:26.090Z,22.15
2023-01-23T00:47:27.743Z,23.13
2023-01-23T00:52:30.283Z,23.92
2023-01-23T00:57:31.860Z,21.13
2023-01-23T01:02:33.705Z,23.02
2023-01-23T01:07:35.559Z,22.17
2023-01-23T01:12:37.380Z,21.90
2023-01-23T01:17:39.212Z,21.63
2023-01-23T01:22:40.751Z,19.65
2023-01-23T01:27:42.367Z,23.25
2023-01-23T01:32:44.572Z,22.63
2023-01-23T01:37:46.600Z,21.35
2023-01-23T01:42:53.629Z,22.77
2023-01-23T01:47:55.429Z,21.67
2023-01-23T01:52:57.025Z,22.13
2023-01-23T01:57:58.915Z,22.15
2023-01-23T02:03:03.410Z,21.58
2023-01-23T02:08:32.596Z,22.23
2023-01-23T02:13:37.138Z,21.88
2023-01-23T02:18:44.562Z,23.55
2023-01-23T02:23:52.305Z,20.20
2023-01-23T02:28:59.319Z,20.67
2023-01-23T02:34:05.914Z,20.13
2023-01-23T02:39:13.410Z,21.10
2023-01-23T02:44:27.399Z,19.58
2023-01-23T02:49:34.127Z,19.90
2023-01-23T02:54:40.381Z,20.23
2023-01-23T03:00:00.699Z,20.30
2023-01-23T03:05:02.836Z,19.17
2023-01-23T03:10:07.486Z,19.58
2023-01-23T03:15:10.145Z,19.75
2023-01-23T03:20:11.884Z,18.83
2023-01-23T03:25:13.811Z,19.35
2023-01-23T03:30:17.259Z,18.80
2023-01-23T03:35:22.084Z,19.50
2023-01-23T03:40:45.445Z,19.88
2023-01-23T03:45:50.309Z,17.77
2023-01-23T03:50:53.085Z,18.08
2023-01-23T03:55:56.198Z,17.23
2023-01-23T04:01:01.375Z,17.90
2023-01-23T04:06:03.403Z,19.17
2023-01-23T04:11:08.397Z,18.42
2023-01-23T04:16:10.070Z,18.48
2023-01-23T04:21:11.896Z,16.65
2023-01-23T04:26:14.461Z,17.33
2023-01-23T04:31:16.444Z,16.10
2023-01-23T04:36:18.273Z,16.65
2023-01-23T04:41:25.923Z,16.75
2023-01-23T04:46:34.896Z,14.50
2023-01-23T04:51:44.472Z,15.20
2023-01-23T04:56:46.825Z,16.38
2023-01-23T05:01:49.807Z,14.65
2023-01-23T05:06:51.968Z,14.38
2023-01-23T05:11:53.930Z,15.75
2023-01-23T05:16:58.020Z,15.10
2023-01-23T05:22:10.259Z,15.55
2023-01-23T05:27:12.938Z,15.55
2023-01-23T05:32:17.256Z,15.90
2023-01-23T05:37:20.374Z,14.63
2023-01-23T05:42:25.802Z,14.82
2023-01-23T05:47:37.276Z,14.90
2023-01-23T05:52:41.067Z,14.85
2023-01-23T05:57:42.682Z,14.52
2023-01-23T06:03:08.921Z,14.52
2023-01-23T06:08:29.103Z,14.15
2023-01-23T06:13:31.421Z,13.68
2023-01-23T06:18:33.308Z,14.73
2023-01-23T06:23:34.888Z,14.25
2023-01-23T06:28:37.350Z,13.70
2023-01-23T06:33:41.170Z,14.80
2023-01-23T06:38:46.017Z,14.80
2023-01-23T06:43:49.921Z,14.80
2023-01-23T06:48:56.639Z,14.52
2023-01-23T06:53:58.702Z,14.15
2023-01-23T06:59:00.696Z,13.65
2023-01-23T07:04:06.196Z,13.98
2023-01-23T07:09:08.022Z,12.88
2023-01-23T07:14:10.985Z,13.95
2023-01-23T07:19:14.147Z,12.98
2023-01-23T07:24:17.239Z,14.30
2023-01-23T07:29:18.779Z,12.68
2023-01-23T07:34:20.337Z,12.63
2023-01-23T07:39:21.947Z,13.27
2023-01-23T07:44:23.644Z,11.48
2023-01-23T07:49:25.275Z,12.50
2023-01-23T07:54:26.844Z,12.55
2023-01-23T07:59:28.423Z,12.35
2023-01-23T08:04:29.987Z,12.60
2023-01-23T08:09:31.670Z,12.75
2023-01-23T08:14:33.229Z,12.10
2023-01-23T08:19:34.759Z,12.23
2023-01-23T08:24:36.522Z,11.60
2023-01-23T08:29:38.051Z,11.63
2023-01-23T08:34:39.605Z,12.05
2023-01-23T08:39:41.168Z,12.23
2023-01-23T08:44:44.918Z,10.75
2023-01-23T08:49:46.527Z,12.57
2023-01-23T08:54:48.056Z,11.45
2023-01-23T08:59:49.619Z,12.57
2023-01-23T09:04:51.198Z,12.80
2023-01-23T09:09:54.944Z,12.45
2023-01-23T09:14:56.483Z,12.57
2023-01-23T09:20:00.494Z,12.15
2023-01-23T09:25:02.374Z,12.15
2023-01-23T09:30:04.581Z,12.80
2023-01-23T09:35:06.594Z,12.00
2023-01-23T09:40:16.899Z,12.77
2023-01-23T09:45:24.795Z,13.40
2023-01-23T09:50:26.433Z,14.05
2023-01-23T09:55:44.135Z,14.57
2023-01-23T10:00:46.500Z,13.30
2023-01-23T10:05:54.253Z,13.15
2023-01-23T10:11:08.517Z,14.18
2023-01-23T10:16:24.583Z,14.60
2023-01-23T10:21:38.930Z,13.25
2023-01-23T10:26:45.067Z,13.13
2023-01-23T10:31:58.608Z,14.90
2023-01-23T10:37:12.206Z,13.65
2023-01-23T10:42:14.270Z,14.00
2023-01-23T10:47:42.564Z,12.80
2023-01-23T10:52:46.077Z,12.45
2023-01-23T10:57:49.776Z,11.63
2023-01-23T11:02:51.426Z,11.95
2023-01-23T11:07:56.032Z,11.52
2023-01-23T11:13:00.646Z,12.60
2023-01-23T11:18:02.375Z,11.43
2023-01-23T11:23:15.849Z,11.15
2023-01-23T11:28:36.678Z,10.45
2023-01-23T11:33:57.203Z,9.70
2023-01-23T11:39:34.670Z,9.98
2023-01-23T11:44:45.642Z,10.10
2023-01-23T11:50:18.058Z,11.25
2023-01-23T11:55:42.334Z,11.30
2023-01-23T12:00:49.542Z,10.10
2023-01-23T12:06:03.539Z,11.00
2023-01-23T12:11:17.110Z,11.10
2023-01-23T12:16:30.834Z,11.00
2023-01-23T12:21:41.182Z,11.40
2023-01-23T12:27:24.312Z,10.60
2023-01-23T12:32:43.002Z,10.00
2023-01-23T12:38:16.155Z,12.07
2023-01-23T12:43:38.174Z,10.20
2023-01-23T12:48:53.851Z,11.13
2023-01-23T12:53:58.603Z,9.73
2023-01-23T12:59:14.252Z,10.80
2023-01-23T13:04:48.046Z,11.68
2023-01-23T13:10:47.505Z,10.38
2023-01-23T13:16:04.481Z,9.65
2023-01-23T13:21:29.291Z,10.93
2023-01-23T13:26:30.965Z,10.68
2023-01-23T13:31:36.061Z,11.38
2023-01-23T13:36:38.160Z,10.43
2023-01-23T13:41:39.840Z,10.85
2023-01-23T14:20:23.818Z,9.45
2023-01-23T14:25:26.927Z,9.32
2023-01-23T14:30:30.352Z,9.93
2023-01-23T14:35:32.973Z,9.15
2023-01-23T14:40:47.118Z,10.05
2023-01-23T14:46:22.237Z,10.48
2023-01-23T14:51:26.653Z,9.55
2023-01-23T14:56:33.165Z,10.50
2023-01-23T15:01:35.968Z,11.02
2023-01-23T15:06:37.863Z,9.73
2023-01-23T15:11:39.567Z,9.48
2023-01-23T15:16:43.581Z,9.55
2023-01-23T15:21:45.200Z,9.43
2023-01-23T15:26:57.923Z,10.32
2023-01-23T15:32:01.055Z,9.45
2023-01-23T15:37:21.879Z,9.70
2023-01-23T15:42:27.665Z,9.68
2023-01-23T15:47:31.036Z,8.85
2023-01-23T15:52:50.696Z,10.27
2023-01-23T15:57:53.530Z,8.77
2023-01-23T16:02:57.707Z,9.07
2023-01-23T16:08:04.437Z,8.38
2023-01-23T16:13:07.823Z,10.10
2023-01-23T16:18:09.854Z,9.02
2023-01-23T16:23:16.191Z,10.73
2023-01-23T16:28:19.319Z,8.70
2023-01-23T16:33:21.938Z,8.93
2023-01-23T16:38:27.199Z,9.43
2023-01-23T16:43:28.777Z,9.88
2023-01-23T16:48:30.337Z,8.95
2023-01-23T16:53:36.567Z,10.07
2023-01-23T16:58:40.041Z,10.65
2023-01-23T17:03:42.266Z,9.88
2023-01-23T17:08:43.950Z,10.48
2023-01-23T17:13:45.637Z,10.30
2023-01-23T17:18:47.389Z,11.15
2023-01-23T17:23:49.078Z,9.45
2023-01-23T17:28:50.705Z,10.13
2023-01-23T17:33:52.721Z,10.98
2023-01-23T17:39:00.439Z,11.68
2023-01-23T17:44:01.988Z,10.93
2023-01-23T17:49:04.341Z,10.98
2023-01-23T17:54:09.715Z,10.05
2023-01-23T17:59:11.818Z,10.60
2023-01-23T18:04:22.090Z,11.95
2023-01-23T18:09:23.631Z,10.82
2023-01-23T18:15:03.532Z,10.95
2023-01-23T18:20:16.548Z,11.45
2023-01-23T18:25:26.078Z,11.23
2023-01-23T18:30:41.694Z,11.00
2023-01-23T18:36:06.334Z,10.52
2023-01-23T18:41:21.081Z,10.93
2023-01-23T18:46:27.895Z,10.07
2023-01-23T18:51:41.307Z,9.85
2023-01-23T18:56:55.779Z,10.15
2023-01-23T19:02:21.358Z,9.02
2023-01-23T19:07:23.188Z,8.88
2023-01-23T19:13:06.339Z,9.48
2023-01-23T19:18:40.349Z,9.65
2023-01-23T19:24:06.905Z,9.80
2023-01-23T19:29:21.064Z,9.52
2023-01-23T19:34:23.788Z,10.00
2023-01-23T19:39:25.381Z,9.60
2023-01-23T19:44:28.972Z,9.98
2023-01-23T19:49:30.565Z,10.00
2023-01-23T19:54:32.119Z,10.00
2023-01-23T19:59:33.713Z,9.52
2023-01-23T20:04:35.284Z,8.88
2023-01-23T20:09:36.800Z,9.82
2023-01-23T20:14:38.353Z,9.95
2023-01-23T20:19:40.202Z,10.00
2023-01-23T20:24:41.714Z,9.63
2023-01-23T20:29:43.247Z,9.75
2023-01-23T20:34:44.864Z,10.35
2023-01-23T20:39:46.523Z,9.77
2023-01-23T20:44:48.085Z,11.30
2023-01-23T20:49:49.690Z,11.20
2023-01-23T20:54:51.315Z,10.15
2023-01-23T20:59:52.845Z,10.57
2023-01-23T21:04:54.446Z,10.43
2023-01-23T21:09:55.962Z,11.00
2023-01-23T21:14:57.489Z,9.52
2023-01-23T21:19:59.054Z,10.77
2023-01-23T21:25:00.621Z,10.32
2023-01-23T21:30:02.167Z,11.35
2023-01-23T21:35:03.849Z,10.93
2023-01-23T21:40:06.109Z,11.98
2023-01-23T21:45:08.266Z,11.70
2023-01-23T21:50:10.406Z,11.27
2023-01-23T21:55:11.971Z,11.48
2023-01-23T22:00:32.337Z,10.98
2023-01-23T22:05:36.598Z,11.68
2023-01-23T22:10:38.266Z,11.40
2023-01-23T22:15:39.835Z,11.68
2023-01-23T22:20:41.351Z,11.90
2023-01-23T22:25:42.899Z,11.52
2023-01-23T22:30:44.464Z,10.75
2023-01-23T22:35:46.177Z,12.57
2023-01-23T22:41:00.006Z,11.40
2023-01-23T22:46:15.940Z,11.30
2023-01-23T22:51:24.611Z,13.75
2023-01-23T22:56:28.134Z,12.50
2023-01-23T23:01:30.156Z,13.70
2023-01-23T23:06:31.732Z,12.60
2023-01-23T23:11:33.430Z,12.88
2023-01-23T23:16:35.026Z,12.63
2023-01-23T23:21:37.843Z,11.10
2023-01-23T23:26:39.388Z,12.60
2023-01-23T23:31:41.343Z,11.77
2023-01-23T23:36:43.073Z,12.52
2023-01-23T23:41:44.657Z,10.50
2023-01-23T23:46:46.545Z,13.43
2023-01-23T23:51:48.102Z,12.57
2023-01-23T23:56:49.721Z,13.65
